createdAt,value
2018-10-07T00:02:02.946Z,82.44
2018-10-07T00:04:31.818Z,81.94
2018-10-07T00:07:06.082Z,81.82
2018-10-07T00:09:41.657Z,82.70
2018-10-07T00:12:10.999Z,83.11
2018-10-07T00:14:45.233Z,82.97
2018-10-07T00:17:17.969Z,83.51
2018-10-07T00:19:51.274Z,83.29
2018-10-07T00:22:20.154Z,82.98
2018-10-07T00:24:49.067Z,82.71
2018-10-07T00:27:17.958Z,83.16
2018-10-07T00:29:52.585Z,82.92
2018-10-07T00:32:25.614Z,83.35
2018-10-07T00:34:54.535Z,83.41
2018-10-07T00:37:28.306Z,84.50
2018-10-07T00:39:58.345Z,83.97
2018-10-07T00:42:29.362Z,83.69
2018-10-07T00:45:04.664Z,83.98
2018-10-07T00:47:39.127Z,84.52
2018-10-07T00:50:08.041Z,84.76
2018-10-07T00:52:39.041Z,84.87
2018-10-07T00:55:08.003Z,84.41
2018-10-07T00:57:36.953Z,84.32
2018-10-07T01:00:13.125Z,84.45
2018-10-07T01:02:49.789Z,85.08
2018-10-07T01:05:30.782Z,85.05
2018-10-07T01:07:59.733Z,85.02
2018-10-07T01:10:47.435Z,84.78
2018-10-07T01:13:21.040Z,85.90
2018-10-07T01:18:43.850Z,86.62
2018-10-07T01:21:13.060Z,86.91
2018-10-07T01:23:42.049Z,87.04
2018-10-07T01:26:19.415Z,87.21
2018-10-07T01:28:48.343Z,87.12
2018-10-07T01:31:20.452Z,86.89
2018-10-07T01:33:50.407Z,86.73
2018-10-07T01:36:26.549Z,86.91
2018-10-07T01:38:59.963Z,87.09
2018-10-07T01:41:36.103Z,86.92
2018-10-07T01:44:05.088Z,87.19
2018-10-07T01:46:34.112Z,86.85
2018-10-07T01:49:03.004Z,86.59
2018-10-07T01:51:31.978Z,87.03
2018-10-07T01:57:06.000Z,87.25
2018-10-07T01:59:34.899Z,86.73
2018-10-07T02:02:07.513Z,86.25
2018-10-07T02:04:46.372Z,87.19
2018-10-07T02:07:16.576Z,86.59
2018-10-07T02:09:47.549Z,86.39
2018-10-07T02:12:40.173Z,87.50
2018-10-07T02:15:10.228Z,88.03
2018-10-07T02:17:44.860Z,88.32
2018-10-07T02:20:15.828Z,88.00
2018-10-07T02:22:44.797Z,88.25
2018-10-07T02:25:14.844Z,89.06
2018-10-07T02:27:43.733Z,88.97
2018-10-07T02:30:26.065Z,90.26
2018-10-07T02:33:00.466Z,89.30
2018-10-07T02:35:41.774Z,89.28
2018-10-07T02:38:10.717Z,89.25
2018-10-07T02:40:47.117Z,90.48
2018-10-07T02:43:17.336Z,90.03
2018-10-07T02:45:50.274Z,89.95
2018-10-07T02:48:19.255Z,91.01
2018-10-07T02:50:48.238Z,90.25
2018-10-07T02:53:21.725Z,89.04
2018-10-07T02:55:50.664Z,90.39
2018-10-07T02:58:21.613Z,90.80
2018-10-07T03:01:03.675Z,89.44
2018-10-07T03:03:38.488Z,90.76
2018-10-07T03:06:07.421Z,91.00
2018-10-07T03:08:39.599Z,90.28
2018-10-07T03:11:12.494Z,90.83
2018-10-07T03:13:47.743Z,91.23
2018-10-07T03:16:16.688Z,91.10
2018-10-07T03:18:45.595Z,91.35
2018-10-07T03:21:14.497Z,92.06
2018-10-07T03:23:48.554Z,91.16
2018-10-07T03:26:25.015Z,92.25
2018-10-07T03:29:18.150Z,92.17
2018-10-07T03:31:59.895Z,90.96
2018-10-07T03:34:32.609Z,91.67
2018-10-07T03:37:09.695Z,92.42
2018-10-07T03:39:43.975Z,92.73
2018-10-07T03:42:17.117Z,91.29
2018-10-07T03:44:46.079Z,91.98
2018-10-07T03:47:20.805Z,92.03
2018-10-07T03:49:49.697Z,91.90
2018-10-07T03:52:18.782Z,91.53
2018-10-07T03:54:48.884Z,91.67
2018-10-07T03:57:18.048Z,91.36
2018-10-07T03:59:54.206Z,90.74
2018-10-07T04:02:23.082Z,91.37
2018-10-07T04:04:51.989Z,91.10
2018-10-07T04:07:24.244Z,91.49
2018-10-07T04:09:54.225Z,91.56
2018-10-07T04:12:39.552Z,90.55
2018-10-07T04:15:08.568Z,92.03
2018-10-07T04:17:37.457Z,92.15
2018-10-07T04:20:11.825Z,90.44
2018-10-07T04:22:40.715Z,90.46
2018-10-07T04:25:09.757Z,90.40
2018-10-07T04:27:38.661Z,90.30
2018-10-07T04:30:21.075Z,91.20
2018-10-07T04:32:50.033Z,90.69
2018-10-07T04:35:23.963Z,91.82
2018-10-07T04:37:56.698Z,92.08
2018-10-07T04:40:26.051Z,91.61
2018-10-07T04:42:57.022Z,91.14
2018-10-07T04:45:35.646Z,91.64
2018-10-07T04:48:04.669Z,90.96
2018-10-07T04:50:38.111Z,91.63
2018-10-07T04:53:13.071Z,92.04
2018-10-07T04:55:46.877Z,91.36
2018-10-07T04:58:16.785Z,89.33
2018-10-07T05:00:45.823Z,89.17
2018-10-07T05:03:22.663Z,89.91
2018-10-07T05:05:53.651Z,89.58
2018-10-07T05:08:22.810Z,88.12
2018-10-07T05:10:53.109Z,87.77
2018-10-07T05:13:28.071Z,87.69
2018-10-07T05:16:04.825Z,88.66
2018-10-07T05:18:38.307Z,87.59
2018-10-07T05:21:13.082Z,86.86
2018-10-07T05:23:57.997Z,86.20
2018-10-07T05:26:31.806Z,88.45
2018-10-07T05:29:08.916Z,87.42
2018-10-07T05:31:38.825Z,86.79
2018-10-07T05:34:20.879Z,85.94
2018-10-07T05:36:55.491Z,85.44
2018-10-07T05:39:36.469Z,86.16
2018-10-07T05:42:06.973Z,85.21
2018-10-07T05:44:39.630Z,86.16
2018-10-07T05:47:13.887Z,85.22
2018-10-07T05:49:45.050Z,85.10
2018-10-07T05:52:18.186Z,84.63
2018-10-07T05:54:47.346Z,85.30
2018-10-07T05:57:17.472Z,84.88
2018-10-07T06:00:02.922Z,84.23
2018-10-07T06:02:39.218Z,84.53
2018-10-07T06:05:10.202Z,83.41
2018-10-07T06:07:39.343Z,82.22
2018-10-07T06:10:08.355Z,82.82
2018-10-07T06:13:01.660Z,82.63
2018-10-07T06:15:39.397Z,82.42
2018-10-07T06:18:08.470Z,81.21
2018-10-07T06:20:40.995Z,80.68
2018-10-07T06:23:10.889Z,81.12
2018-10-07T06:25:45.888Z,80.53
2018-10-07T06:28:16.931Z,79.86
2018-10-07T06:31:08.902Z,80.25
2018-10-07T06:33:46.123Z,78.83
2018-10-07T06:36:18.383Z,78.42
2018-10-07T06:38:47.410Z,78.36
2018-10-07T06:41:18.337Z,78.12
2018-10-07T06:43:47.303Z,77.23
2018-10-07T06:46:19.470Z,76.67
2018-10-07T06:48:50.402Z,76.53
2018-10-07T06:51:19.406Z,76.21
2018-10-07T06:54:00.928Z,76.51
2018-10-07T06:56:32.000Z,75.08
2018-10-07T06:59:06.485Z,75.86
2018-10-07T07:04:43.030Z,75.46
2018-10-07T07:07:12.934Z,75.41
2018-10-07T07:09:51.939Z,75.08
2018-10-07T07:12:20.849Z,74.27
2018-10-07T07:14:49.841Z,74.16
2018-10-07T07:17:18.764Z,73.58
2018-10-07T07:19:52.980Z,74.01
2018-10-07T07:22:41.742Z,73.07
2018-10-07T07:25:12.681Z,74.75
2018-10-07T07:27:42.642Z,74.64
2018-10-07T07:30:14.968Z,73.47
2018-10-07T07:32:43.929Z,73.76
2018-10-07T07:35:13.912Z,73.66
2018-10-07T07:37:43.204Z,74.04
2018-10-07T07:40:30.628Z,72.96
2018-10-07T07:43:04.478Z,72.79
2018-10-07T07:45:43.105Z,72.74
2018-10-07T07:48:15.231Z,71.68
2018-10-07T07:50:46.506Z,71.35
2018-10-07T07:53:18.726Z,70.64
2018-10-07T07:55:51.367Z,69.27
2018-10-07T07:58:24.347Z,69.44
2018-10-07T08:00:56.998Z,70.22
2018-10-07T08:03:26.119Z,68.38
2018-10-07T08:05:55.066Z,67.33
2018-10-07T08:08:27.387Z,67.49
2018-10-07T08:11:01.005Z,68.33
2018-10-07T08:13:31.996Z,66.17
2018-10-07T08:16:02.038Z,67.37
2018-10-07T08:18:32.059Z,66.51
2018-10-07T08:21:06.711Z,66.35
2018-10-07T08:23:45.464Z,65.98
2018-10-07T08:26:16.370Z,65.72
2018-10-07T08:28:49.700Z,66.12
2018-10-07T08:31:18.673Z,65.07
2018-10-07T08:34:05.989Z,65.63
2018-10-07T08:36:35.894Z,66.04
2018-10-07T08:39:11.137Z,65.45
2018-10-07T08:41:41.038Z,64.17
2018-10-07T08:44:11.064Z,64.01
2018-10-07T08:46:40.451Z,64.90
2018-10-07T08:49:21.978Z,64.62
2018-10-07T08:51:55.531Z,64.34
2018-10-07T08:54:25.022Z,64.42
2018-10-07T08:56:59.769Z,64.30
2018-10-07T08:59:33.021Z,63.66
2018-10-07T09:02:07.331Z,63.01
2018-10-07T09:04:37.030Z,63.55
2018-10-07T09:07:08.605Z,62.82
2018-10-07T09:09:41.629Z,62.89
2018-10-07T09:12:23.201Z,63.73
2018-10-07T09:15:00.406Z,62.74
2018-10-07T09:17:30.819Z,61.99
2018-10-07T09:20:06.099Z,60.81
2018-10-07T09:22:36.509Z,61.94
2018-10-07T09:25:05.607Z,61.89
2018-10-07T09:27:35.110Z,60.88
2018-10-07T09:30:04.557Z,61.39
2018-10-07T09:32:38.453Z,61.80
2018-10-07T09:35:08.219Z,60.57
2018-10-07T09:37:38.202Z,60.84
2018-10-07T09:40:11.257Z,60.25
2018-10-07T09:42:46.066Z,59.91
2018-10-07T09:45:14.976Z,60.58
2018-10-07T09:47:44.898Z,60.67
2018-10-07T09:50:15.873Z,60.45
2018-10-07T09:52:51.919Z,60.68
2018-10-07T09:55:24.360Z,60.48
2018-10-07T09:57:53.329Z,60.58
2018-10-07T10:00:29.871Z,61.63
2018-10-07T10:02:59.209Z,60.94
2018-10-07T10:05:32.725Z,60.07
2018-10-07T10:08:08.028Z,59.85
2018-10-07T10:10:37.161Z,60.16
2018-10-07T10:13:18.412Z,59.41
2018-10-07T10:15:48.365Z,59.76
2018-10-07T10:18:26.747Z,58.49
2018-10-07T10:21:06.990Z,57.89
2018-10-07T10:23:52.281Z,58.58
2018-10-07T10:26:25.062Z,58.29
2018-10-07T10:29:05.290Z,57.88
2018-10-07T10:31:52.634Z,57.41
2018-10-07T10:34:31.223Z,57.07
2018-10-07T10:37:07.710Z,56.58
2018-10-07T10:39:47.755Z,57.26
2018-10-07T10:42:53.648Z,56.68
2018-10-07T10:45:34.876Z,56.58
2018-10-07T10:48:25.864Z,56.24
2018-10-07T10:55:21.257Z,56.81
2018-10-07T10:57:57.232Z,56.30
2018-10-07T11:00:42.467Z,55.82
2018-10-07T11:03:19.688Z,56.28
2018-10-07T11:05:59.467Z,56.32
2018-10-07T11:08:44.104Z,56.29
2018-10-07T11:11:20.361Z,56.66
2018-10-07T11:13:58.285Z,55.89
2018-10-07T11:16:42.456Z,56.15
2018-10-07T11:19:23.334Z,55.63
2018-10-07T11:23:02.527Z,55.84
2018-10-07T11:25:56.534Z,56.04
2018-10-07T11:28:41.551Z,60.27
2018-10-07T11:31:27.267Z,55.22
2018-10-07T11:34:13.281Z,54.49
2018-10-07T11:36:55.843Z,55.26
2018-10-07T11:39:41.356Z,54.83
2018-10-07T11:42:25.543Z,54.11
2018-10-07T11:45:01.232Z,54.48
2018-10-07T11:48:52.370Z,54.68
2018-10-07T11:51:32.086Z,54.32
2018-10-07T11:54:08.969Z,54.19
2018-10-07T11:56:39.464Z,54.78
2018-10-07T11:59:08.375Z,53.92
2018-10-07T12:01:44.392Z,54.05
2018-10-07T12:04:33.594Z,54.09
2018-10-07T12:07:17.366Z,53.35
2018-10-07T12:09:47.297Z,53.21
2018-10-07T12:12:16.506Z,52.92
2018-10-07T12:14:46.017Z,52.99
2018-10-07T12:17:14.882Z,51.89
2018-10-07T12:19:43.794Z,51.90
2018-10-07T12:22:12.773Z,51.23
2018-10-07T12:24:45.490Z,51.02
2018-10-07T12:27:19.185Z,50.95
2018-10-07T12:29:48.157Z,51.00
2018-10-07T12:32:17.173Z,51.39
2018-10-07T12:34:48.125Z,50.89
2018-10-07T12:37:17.018Z,50.19
2018-10-07T12:39:46.988Z,51.02
2018-10-07T12:42:23.097Z,50.70
2018-10-07T12:44:55.440Z,49.77
2018-10-07T12:47:28.344Z,50.15
2018-10-07T12:49:57.297Z,50.37
2018-10-07T12:52:26.219Z,50.00
2018-10-07T12:54:55.113Z,49.11
2018-10-07T12:57:25.143Z,50.00
2018-10-07T13:00:11.706Z,49.30
2018-10-07T13:02:40.620Z,49.88
2018-10-07T13:05:09.675Z,50.65
2018-10-07T13:07:38.588Z,50.04
2018-10-07T13:10:07.492Z,51.33
2018-10-07T13:12:36.464Z,50.68
2018-10-07T13:15:05.602Z,50.43
2018-10-07T13:17:34.590Z,50.79
2018-10-07T13:20:03.663Z,50.87
2018-10-07T13:22:32.568Z,51.25
2018-10-07T13:25:03.522Z,50.70
2018-10-07T13:27:32.456Z,50.34
2018-10-07T13:30:01.373Z,50.67
2018-10-07T13:32:31.127Z,50.72
2018-10-07T13:35:03.939Z,49.95
2018-10-07T13:37:32.833Z,50.14
2018-10-07T13:40:07.333Z,50.53
2018-10-07T13:42:41.067Z,50.00
2018-10-07T13:45:09.996Z,49.79
2018-10-07T13:47:38.886Z,49.64
2018-10-07T13:50:19.832Z,49.74
2018-10-07T13:52:59.640Z,49.28
2018-10-07T13:55:28.585Z,49.39
2018-10-07T13:58:03.040Z,49.73
2018-10-07T14:00:31.944Z,50.24
2018-10-07T14:03:08.585Z,50.17
2018-10-07T14:05:41.049Z,50.62
2018-10-07T14:08:13.793Z,50.90
2018-10-07T14:10:52.268Z,50.24
2018-10-07T14:13:25.741Z,49.61
2018-10-07T14:15:58.451Z,49.53
2018-10-07T14:18:38.019Z,49.64
2018-10-07T14:24:10.415Z,49.44
2018-10-07T14:26:40.456Z,49.96
2018-10-07T14:29:20.925Z,50.22
2018-10-07T14:31:55.353Z,50.46
2018-10-07T14:34:32.725Z,50.54
2018-10-07T14:37:01.701Z,50.01
2018-10-07T14:39:34.929Z,50.28
2018-10-07T14:42:21.741Z,50.82
2018-10-07T14:44:58.067Z,50.00
2018-10-07T14:47:27.155Z,50.29
2018-10-07T14:49:56.056Z,49.69
2018-10-07T14:52:24.974Z,49.90
2018-10-07T14:54:54.885Z,49.51
2018-10-07T14:57:23.806Z,50.16
2018-10-07T14:59:57.676Z,50.21
2018-10-07T15:02:39.291Z,49.75
2018-10-07T15:05:10.242Z,50.34
2018-10-07T15:07:42.827Z,49.52
2018-10-07T15:10:26.428Z,49.86
2018-10-07T15:13:09.027Z,49.37
2018-10-07T15:15:40.084Z,49.76
2018-10-07T15:18:14.807Z,49.33
2018-10-07T15:20:55.127Z,49.95
2018-10-07T15:23:27.541Z,49.98
2018-10-07T15:25:59.585Z,50.56
2018-10-07T15:28:34.334Z,50.52
2018-10-07T15:31:03.367Z,50.55
2018-10-07T15:33:34.278Z,50.91
2018-10-07T15:36:03.309Z,50.98
2018-10-07T15:38:32.396Z,51.22
2018-10-07T15:41:01.376Z,51.65
2018-10-07T15:43:37.379Z,51.66
2018-10-07T15:46:07.352Z,51.48
2018-10-07T15:48:41.297Z,51.66
2018-10-07T15:51:14.098Z,51.35
2018-10-07T15:53:50.588Z,50.89
2018-10-07T15:56:20.627Z,50.85
2018-10-07T15:58:54.982Z,50.76
2018-10-07T16:01:24.581Z,50.27
2018-10-07T16:03:55.129Z,50.95
2018-10-07T16:06:28.658Z,51.47
2018-10-07T16:08:58.710Z,51.36
2018-10-07T16:11:27.658Z,51.42
2018-10-07T16:14:00.456Z,51.17
2018-10-07T16:16:30.380Z,51.14
2018-10-07T16:19:00.430Z,51.81
2018-10-07T16:21:30.495Z,51.67
2018-10-07T16:24:00.947Z,51.69
2018-10-07T16:26:31.642Z,52.19
2018-10-07T16:29:01.066Z,52.35
2018-10-07T16:31:30.622Z,52.46
2018-10-07T16:34:04.897Z,52.20
2018-10-07T16:36:35.354Z,52.25
2018-10-07T16:39:05.674Z,51.88
2018-10-07T16:41:38.902Z,51.91
2018-10-07T16:44:11.623Z,52.12
2018-10-07T16:46:44.686Z,53.11
2018-10-07T16:49:15.338Z,52.66
2018-10-07T16:51:48.307Z,52.77
2018-10-07T16:54:23.192Z,52.99
2018-10-07T16:56:54.779Z,53.02
2018-10-07T16:59:34.003Z,53.74
2018-10-07T17:02:10.378Z,53.76
2018-10-07T17:04:39.508Z,53.96
2018-10-07T17:07:10.173Z,55.34
2018-10-07T17:09:43.413Z,54.87
2018-10-07T17:12:22.784Z,55.17
2018-10-07T17:14:52.336Z,54.39
2018-10-07T17:17:23.097Z,54.22
2018-10-07T17:19:53.022Z,54.88
2018-10-07T17:22:23.318Z,56.24
2018-10-07T17:24:52.919Z,56.15
2018-10-07T17:27:24.639Z,56.31
2018-10-07T17:30:01.466Z,56.72
2018-10-07T17:32:31.859Z,57.27
2018-10-07T17:35:02.855Z,57.15
2018-10-07T17:37:37.756Z,57.84
2018-10-07T17:40:11.206Z,58.73
2018-10-07T17:42:41.948Z,59.17
2018-10-07T17:45:12.571Z,59.16
2018-10-07T17:47:42.138Z,59.58
2018-10-07T17:50:11.970Z,59.83
2018-10-07T17:52:41.462Z,59.75
2018-10-07T17:55:14.676Z,60.39
2018-10-07T17:57:49.931Z,61.18
2018-10-07T18:00:23.363Z,61.23
2018-10-07T18:02:59.630Z,61.45
2018-10-07T18:05:35.531Z,61.47
2018-10-07T18:08:05.066Z,61.62
2018-10-07T18:10:36.548Z,61.99
2018-10-07T18:13:11.079Z,62.02
2018-10-07T18:15:40.642Z,62.33
2018-10-07T18:18:20.943Z,62.80
2018-10-07T18:20:57.662Z,62.42
2018-10-07T18:23:30.943Z,62.29
2018-10-07T18:26:00.620Z,62.59
2018-10-07T18:28:30.068Z,63.35
2018-10-07T18:31:00.512Z,63.02
2018-10-07T18:33:37.581Z,62.95
2018-10-07T18:36:07.134Z,62.71
2018-10-07T18:38:48.130Z,63.63
2018-10-07T18:41:21.340Z,63.37
2018-10-07T18:43:57.976Z,63.72
2018-10-07T18:46:27.342Z,63.80
2018-10-07T18:49:00.999Z,64.27
2018-10-07T18:51:32.482Z,63.95
2018-10-07T18:54:07.616Z,64.44
2018-10-07T18:56:37.691Z,64.25
2018-10-07T18:59:11.199Z,64.57
2018-10-07T19:01:45.052Z,64.96
2018-10-07T19:04:15.830Z,65.20
2018-10-07T19:06:45.268Z,65.52
2018-10-07T19:09:17.691Z,65.28
2018-10-07T19:11:50.761Z,65.74
2018-10-07T19:14:25.591Z,65.68
2018-10-07T19:16:55.187Z,66.19
2018-10-07T19:19:24.222Z,65.56
2018-10-07T19:21:55.267Z,65.81
2018-10-07T19:24:29.061Z,65.80
2018-10-07T19:27:10.018Z,66.23
2018-10-07T19:29:40.995Z,66.25
2018-10-07T19:32:09.966Z,67.21
2018-10-07T19:34:38.906Z,67.24
2018-10-07T19:37:10.081Z,67.41
2018-10-07T19:39:39.901Z,67.36
2018-10-07T19:42:11.985Z,66.88
2018-10-07T19:44:41.111Z,67.48
2018-10-07T19:47:15.077Z,67.68
2018-10-07T19:49:45.049Z,67.66
2018-10-07T19:52:22.350Z,68.49
2018-10-07T19:54:55.618Z,68.17
2018-10-07T19:57:43.472Z,68.89
2018-10-07T20:00:13.501Z,68.48
2018-10-07T20:02:48.017Z,69.45
2018-10-07T20:05:20.900Z,68.51
2018-10-07T20:07:50.210Z,68.63
2018-10-07T20:10:20.275Z,68.87
2018-10-07T20:12:51.238Z,69.34
2018-10-07T20:15:23.499Z,68.62
2018-10-07T20:20:46.209Z,69.88
2018-10-07T20:23:28.334Z,70.09
2018-10-07T20:26:22.224Z,70.06
2018-10-07T20:28:51.039Z,69.08
2018-10-07T20:31:19.966Z,70.15
2018-10-07T20:33:49.105Z,70.31
2018-10-07T20:36:34.784Z,69.46
2018-10-07T20:39:26.429Z,70.53
2018-10-07T20:42:01.420Z,69.65
2018-10-07T20:44:33.968Z,70.11
2018-10-07T20:47:13.250Z,69.85
2018-10-07T20:49:55.404Z,69.70
2018-10-07T20:52:30.804Z,70.31
2018-10-07T20:55:06.992Z,70.42
2018-10-07T20:57:43.096Z,71.09
2018-10-07T21:00:13.172Z,71.06
2018-10-07T21:02:42.122Z,71.64
2018-10-07T21:05:13.417Z,71.52
2018-10-07T21:07:42.596Z,70.94
2018-10-07T21:10:13.574Z,70.93
2018-10-07T21:12:48.010Z,71.76
2018-10-07T21:15:22.833Z,71.45
2018-10-07T21:17:53.789Z,71.70
2018-10-07T21:20:39.571Z,71.78
2018-10-07T21:23:08.526Z,71.45
2018-10-07T21:25:44.947Z,71.80
2018-10-07T21:28:23.745Z,72.26
2018-10-07T21:34:08.602Z,71.98
2018-10-07T21:36:56.259Z,72.10
2018-10-07T21:39:31.024Z,72.31
2018-10-07T21:42:05.789Z,72.26
2018-10-07T21:44:35.737Z,72.02
2018-10-07T21:47:04.699Z,72.41
2018-10-07T21:49:39.631Z,72.17
2018-10-07T21:52:10.457Z,72.27
2018-10-07T21:54:41.445Z,72.10
2018-10-07T21:57:14.225Z,72.61
2018-10-07T21:59:43.231Z,72.53
2018-10-07T22:02:18.397Z,71.86
2018-10-07T22:04:59.733Z,72.07
2018-10-07T22:07:32.768Z,72.16
2018-10-07T22:10:05.605Z,72.06
2018-10-07T22:12:45.845Z,71.78
2018-10-07T22:18:10.575Z,72.37
2018-10-07T22:20:40.424Z,72.31
2018-10-07T22:23:28.138Z,71.95
2018-10-07T22:26:04.404Z,72.17
2018-10-07T22:28:44.161Z,72.13
2018-10-07T22:31:13.030Z,71.74
2018-10-07T22:33:45.406Z,71.68
2018-10-07T22:36:18.646Z,71.92
2018-10-07T22:38:54.801Z,71.95
2018-10-07T22:41:24.126Z,71.43
2018-10-07T22:43:56.790Z,72.10
2018-10-07T22:46:25.734Z,71.32
2018-10-07T22:48:59.413Z,72.18
2018-10-07T22:51:29.323Z,72.41
2018-10-07T22:54:02.101Z,72.55
2018-10-07T22:56:33.128Z,72.06
2018-10-07T22:59:02.650Z,72.19
2018-10-07T23:01:42.277Z,72.39
2018-10-07T23:04:23.817Z,72.43
2018-10-07T23:06:54.929Z,72.19
2018-10-07T23:09:24.825Z,72.66
2018-10-07T23:11:53.837Z,72.88
2018-10-07T23:14:24.795Z,74.14
2018-10-07T23:16:55.702Z,74.17
2018-10-07T23:19:30.129Z,73.87
2018-10-07T23:22:12.078Z,73.25
2018-10-07T23:24:42.037Z,73.43
2018-10-07T23:27:11.978Z,72.75
2018-10-07T23:29:47.134Z,73.48
2018-10-07T23:32:30.308Z,74.07
2018-10-07T23:35:03.140Z,74.28
2018-10-07T23:37:45.234Z,74.36
2018-10-07T23:40:15.725Z,74.74
2018-10-07T23:42:45.260Z,74.64
2018-10-07T23:45:14.499Z,74.66
2018-10-07T23:47:44.076Z,74.83
2018-10-07T23:50:19.823Z,75.35
2018-10-07T23:53:01.450Z,74.85
2018-10-07T23:55:36.437Z,75.77
2018-10-07T23:58:11.542Z,75.90
